This is the latest recevied weather packets stored in our database for station/object WX4FUN-13. If no packets are shown the sender has not sent any weather packets the latest 10 day(s).
| Time | Temp. | Humidity | Pressure | Rain* | Wind** | Luminosity | Snow |
|---|---|---|---|---|---|---|---|
| 1777931496 | 22.22° C | 32% | 1008 hPa | 0 mm | - | 121 W/m² | - |
| 1777930897 | 22.78° C | 32% | 1008 hPa | 0 mm | - | 79 W/m² | - |
| 1777930297 | 23.33° C | 31% | 1007.9 hPa | 0 mm | - | 239 W/m² | - |
| 1777929693 | 23.33° C | 31% | 1008.1 hPa | 0 mm | - | 291 W/m² | - |
| 1777929091 | 23.33° C | 30% | 1008.1 hPa | 0 mm | - | 375 W/m² | - |
| 1777928491 | 23.33° C | 31% | 1008 hPa | 0 mm | - | 322 W/m² | - |
| 1777927892 | 23.89° C | 30% | 1008.1 hPa | 0 mm | - | 448 W/m² | - |
| 1777927292 | 23.89° C | 31% | 1008.1 hPa | 0 mm | - | 501 W/m² | - |
| 1777926693 | 23.89° C | 31% | 1008.1 hPa | 0 mm | - | 451 W/m² | - |
| 1777926086 | 23.89° C | 30% | 1008 hPa | 0 mm | - | 124 W/m² | - |
| 1777925488 | 23.89° C | 32% | 1008.1 hPa | 0 mm | - | 600 W/m² | - |
| 1777924888 | 23.33° C | 32% | 1008.2 hPa | 0 mm | - | 550 W/m² | - |
| 1777924289 | 23.33° C | 32% | 1008.3 hPa | 0 mm | - | 163 W/m² | - |
| 1777923689 | 22.78° C | 32% | 1008.3 hPa | 0 mm | - | 101 W/m² | - |
| 1777923087 | 22.78° C | 32% | 1008.3 hPa | 0 mm | - | 82 W/m² | - |
| 1777922483 | 22.78° C | 32% | 1008.3 hPa | 0 mm | - | 83 W/m² | - |
| 1777921883 | 22.78° C | 33% | 1008.3 hPa | 0 mm | - | 88 W/m² | - |
| 1777921284 | 22.78° C | 32% | 1008.6 hPa | 0 mm | - | 760 W/m² | - |
| 1777920684 | 22.78° C | 31% | 1008.6 hPa | 0 mm | - | 329 W/m² | - |
| 1777920083 | 22.78° C | 33% | 1008.7 hPa | 0 mm | - | 189 W/m² | - |
| 1777919482 | 23.33° C | 32% | 1008.9 hPa | 0 mm | - | 830 W/m² | - |
| 1777918881 | 22.78° C | 33% | 1008.9 hPa | 0 mm | - | 839 W/m² | - |
| 1777918281 | 22.22° C | 32% | 1009 hPa | 0 mm | - | 853 W/m² | - |
| 1777917681 | 22.78° C | 32% | 1009.1 hPa | 0 mm | - | 875 W/m² | - |
| 1777917082 | 22.22° C | 31% | 1009.1 hPa | 0 mm | - | 889 W/m² | - |
* Rain latest hour (hover to see other rain measurements)
** Current wind speed in m/s (hover to see current wind gust speed)